createdAt,value
2018-12-06T00:01:33.340Z,9.10
2018-12-06T00:04:36.702Z,8.90
2018-12-06T00:11:33.317Z,8.50
2018-12-06T00:14:36.509Z,8.50
2018-12-06T00:17:39.712Z,8.50
2018-12-06T00:20:43.073Z,8.90
2018-12-06T00:23:46.277Z,8.90
2018-12-06T00:26:49.669Z,8.50
2018-12-06T00:30:09.945Z,8.80
2018-12-06T00:33:13.189Z,8.30
2018-12-06T00:36:16.417Z,8.70
2018-12-06T00:39:19.642Z,9.10
2018-12-06T00:42:22.899Z,8.70
2018-12-06T00:45:26.376Z,8.30
2018-12-06T00:48:29.741Z,8.40
2018-12-06T00:51:32.968Z,8.70
2018-12-06T00:54:36.193Z,8.80
2018-12-06T00:57:39.405Z,8.40
2018-12-06T01:00:42.640Z,8.90
2018-12-06T01:03:45.848Z,8.70
2018-12-06T01:06:49.041Z,8.50
2018-12-06T01:09:52.507Z,8.90
2018-12-06T01:12:55.730Z,8.90
2018-12-06T01:15:59.011Z,9.10
2018-12-06T01:19:02.245Z,8.60
2018-12-06T01:22:05.725Z,8.50
2018-12-06T01:25:09.057Z,8.50
2018-12-06T01:28:12.371Z,9.10
2018-12-06T01:31:15.588Z,8.40
2018-12-06T01:34:18.804Z,8.80
2018-12-06T01:37:22.060Z,9.00
2018-12-06T01:40:25.285Z,9.10
2018-12-06T01:43:28.476Z,8.90
2018-12-06T01:46:31.700Z,9.30
2018-12-06T01:49:34.893Z,9.20
2018-12-06T01:52:39.239Z,8.60
2018-12-06T01:55:42.445Z,8.90
2018-12-06T01:58:46.109Z,8.90
2018-12-06T02:01:49.468Z,9.00
2018-12-06T02:04:52.749Z,8.40
2018-12-06T02:07:55.991Z,8.90
2018-12-06T02:10:59.300Z,8.50
2018-12-06T02:14:02.787Z,8.50
2018-12-06T02:17:06.323Z,9.10
2018-12-06T02:20:09.708Z,9.00
2018-12-06T02:23:12.964Z,8.70
2018-12-06T02:26:16.158Z,9.00
2018-12-06T02:29:19.557Z,9.00
2018-12-06T02:32:23.678Z,8.50
2018-12-06T02:35:27.021Z,8.40
2018-12-06T02:38:30.366Z,8.90
2018-12-06T02:41:33.571Z,8.60
2018-12-06T02:44:37.026Z,8.90
2018-12-06T02:47:40.237Z,9.10
2018-12-06T02:50:43.475Z,9.10
2018-12-06T02:53:46.698Z,9.10
2018-12-06T02:56:50.073Z,8.60
2018-12-06T02:59:53.319Z,9.30
2018-12-06T03:02:56.513Z,9.20
2018-12-06T03:05:59.870Z,9.10
2018-12-06T03:09:05.426Z,9.00
2018-12-06T03:12:10.691Z,8.70
2018-12-06T03:15:14.032Z,8.70
2018-12-06T03:18:17.254Z,9.10
2018-12-06T03:21:20.588Z,9.00
2018-12-06T03:24:23.812Z,9.40
2018-12-06T03:27:27.061Z,8.70
2018-12-06T03:30:30.286Z,8.80
2018-12-06T03:33:33.614Z,9.20
2018-12-06T03:36:36.867Z,9.30
2018-12-06T03:39:40.107Z,9.00
2018-12-06T03:42:43.313Z,9.40
2018-12-06T03:45:46.522Z,8.90
2018-12-06T03:48:49.786Z,9.30
2018-12-06T03:51:53.017Z,9.40
2018-12-06T03:54:56.210Z,9.20
2018-12-06T03:57:59.556Z,9.30
2018-12-06T04:01:02.781Z,8.90
2018-12-06T04:04:08.884Z,9.50
2018-12-06T04:07:12.101Z,9.20
2018-12-06T04:10:15.298Z,9.20
2018-12-06T04:13:18.509Z,9.20
2018-12-06T04:16:21.708Z,8.80
2018-12-06T04:19:24.928Z,9.10
2018-12-06T04:22:28.136Z,9.20
2018-12-06T04:25:31.332Z,9.30
2018-12-06T04:28:34.533Z,9.20
2018-12-06T04:31:37.746Z,9.20
2018-12-06T04:34:43.101Z,8.90
2018-12-06T04:37:46.549Z,8.80
2018-12-06T04:40:49.757Z,9.20
2018-12-06T04:43:52.978Z,9.10
2018-12-06T04:46:56.362Z,9.20
2018-12-06T04:49:59.714Z,9.20
2018-12-06T04:53:02.925Z,8.80
2018-12-06T04:56:06.132Z,8.60
2018-12-06T04:59:09.345Z,8.80
2018-12-06T05:02:12.714Z,8.90
2018-12-06T05:05:16.068Z,8.90
2018-12-06T05:08:19.287Z,9.10
2018-12-06T05:11:22.500Z,9.30
2018-12-06T05:14:25.713Z,8.70
2018-12-06T05:17:28.946Z,9.30
2018-12-06T05:20:32.173Z,9.30
2018-12-06T05:23:35.400Z,9.40
2018-12-06T05:26:38.617Z,9.20
2018-12-06T05:29:41.832Z,9.30
2018-12-06T05:32:45.070Z,8.80
2018-12-06T05:35:48.281Z,8.90
2018-12-06T05:38:51.501Z,9.00
2018-12-06T05:41:54.684Z,8.90
2018-12-06T05:44:57.929Z,9.50
2018-12-06T05:48:01.121Z,9.60
2018-12-06T05:51:04.532Z,9.50
2018-12-06T05:54:07.747Z,9.70
2018-12-06T05:57:11.061Z,9.40
2018-12-06T06:00:14.281Z,9.30
2018-12-06T06:03:17.493Z,9.30
2018-12-06T06:06:20.712Z,9.50
2018-12-06T06:09:25.643Z,9.20
2018-12-06T06:12:28.928Z,9.40
2018-12-06T06:15:32.224Z,9.20
2018-12-06T06:18:35.433Z,9.20
2018-12-06T06:21:38.656Z,9.30
2018-12-06T06:24:41.864Z,9.20
2018-12-06T06:27:45.089Z,9.20
2018-12-06T06:30:48.311Z,9.20
2018-12-06T06:33:51.525Z,9.40
2018-12-06T06:36:54.864Z,8.80
2018-12-06T06:39:58.085Z,9.20
2018-12-06T06:43:01.418Z,9.40
2018-12-06T06:46:04.776Z,9.20
2018-12-06T06:49:13.717Z,8.70
2018-12-06T06:52:13.236Z,9.40
2018-12-06T06:55:16.461Z,8.90
2018-12-06T06:58:19.664Z,9.40
2018-12-06T07:01:22.873Z,9.30
2018-12-06T07:04:26.180Z,9.20
2018-12-06T07:07:29.525Z,9.40
2018-12-06T07:10:32.838Z,9.10
2018-12-06T07:13:36.085Z,8.90
2018-12-06T07:16:39.729Z,9.70
2018-12-06T07:19:42.953Z,9.50
2018-12-06T07:22:46.428Z,9.80
2018-12-06T07:25:49.653Z,9.30
2018-12-06T07:28:52.852Z,9.80
2018-12-06T07:31:56.064Z,9.50
2018-12-06T07:34:59.359Z,9.70
2018-12-06T07:38:02.693Z,9.60
2018-12-06T07:41:06.082Z,9.80
2018-12-06T07:44:09.374Z,9.80
2018-12-06T07:47:12.601Z,9.60
2018-12-06T07:50:15.985Z,9.40
2018-12-06T07:53:19.178Z,9.70
2018-12-06T07:56:22.388Z,9.70
2018-12-06T07:59:25.594Z,9.30
2018-12-06T08:02:28.880Z,9.80
2018-12-06T08:05:32.137Z,9.80
2018-12-06T08:08:35.449Z,9.80
2018-12-06T08:11:38.809Z,9.60
2018-12-06T08:14:42.090Z,9.90
2018-12-06T08:17:46.420Z,9.90
2018-12-06T08:20:49.637Z,9.30
2018-12-06T08:23:52.836Z,10.10
2018-12-06T08:26:56.059Z,10.20
2018-12-06T08:29:59.244Z,9.80
2018-12-06T08:33:02.462Z,9.40
2018-12-06T08:36:05.904Z,9.90
2018-12-06T08:39:09.133Z,9.90
2018-12-06T08:42:12.380Z,10.00
2018-12-06T08:45:15.733Z,9.80
2018-12-06T08:48:18.949Z,9.60
2018-12-06T08:51:22.153Z,10.00
2018-12-06T08:54:25.482Z,10.20
2018-12-06T08:57:28.693Z,9.90
2018-12-06T09:00:31.901Z,9.70
2018-12-06T09:03:35.140Z,10.00
2018-12-06T09:06:40.304Z,10.20
2018-12-06T09:09:43.628Z,10.20
2018-12-06T09:12:46.833Z,10.30
2018-12-06T09:15:50.031Z,9.70
2018-12-06T09:18:53.281Z,10.10
2018-12-06T09:21:56.476Z,10.40
2018-12-06T09:24:59.721Z,9.70
2018-12-06T09:28:02.969Z,10.30
2018-12-06T09:31:06.181Z,10.00
2018-12-06T09:34:09.415Z,10.00
2018-12-06T09:37:12.832Z,10.50
2018-12-06T09:40:16.053Z,10.10
2018-12-06T09:43:19.280Z,9.90
2018-12-06T09:46:22.657Z,10.50
2018-12-06T09:49:25.925Z,10.70
2018-12-06T09:52:29.160Z,10.50
2018-12-06T09:55:32.380Z,10.60
2018-12-06T09:58:35.616Z,10.80
2018-12-06T10:01:38.853Z,10.10
2018-12-06T10:04:42.203Z,10.40
2018-12-06T10:07:45.425Z,10.70
2018-12-06T10:10:48.676Z,10.70
2018-12-06T10:13:51.903Z,10.60
2018-12-06T10:16:55.336Z,10.70
2018-12-06T10:19:58.658Z,10.20
2018-12-06T10:23:01.872Z,10.20
2018-12-06T10:26:05.131Z,10.30
2018-12-06T10:29:08.354Z,10.80
2018-12-06T10:32:11.537Z,11.00
2018-12-06T10:35:14.757Z,10.80
2018-12-06T10:38:18.127Z,11.10
2018-12-06T10:41:21.353Z,10.40
2018-12-06T10:44:29.328Z,10.60
2018-12-06T10:47:32.512Z,10.70
2018-12-06T10:50:35.745Z,10.80
2018-12-06T10:53:38.949Z,10.40
2018-12-06T10:56:42.188Z,10.70
2018-12-06T10:59:45.548Z,10.40
2018-12-06T11:02:48.812Z,10.70
2018-12-06T11:05:52.170Z,10.90
2018-12-06T11:08:55.423Z,11.00
2018-12-06T11:11:58.702Z,10.50
2018-12-06T11:15:01.937Z,11.00
2018-12-06T11:18:05.256Z,10.90
2018-12-06T11:21:08.482Z,11.10
2018-12-06T11:24:11.702Z,11.20
2018-12-06T11:27:15.056Z,11.10
2018-12-06T11:30:18.300Z,10.80
2018-12-06T11:33:21.536Z,11.30
2018-12-06T11:36:24.811Z,11.20
2018-12-06T11:39:28.177Z,10.70
2018-12-06T11:42:31.417Z,11.00
2018-12-06T11:45:34.648Z,11.40
2018-12-06T11:48:37.882Z,10.80
2018-12-06T11:51:41.114Z,10.80
2018-12-06T11:54:44.321Z,11.20
2018-12-06T11:57:47.524Z,11.10
2018-12-06T12:00:50.804Z,11.20
2018-12-06T12:03:54.034Z,11.50
2018-12-06T12:06:57.271Z,11.10
2018-12-06T12:10:00.509Z,11.20
2018-12-06T12:13:03.870Z,10.80
2018-12-06T12:16:09.114Z,11.30
2018-12-06T12:19:12.372Z,11.30
2018-12-06T12:22:15.645Z,11.00
2018-12-06T12:25:18.861Z,11.30
2018-12-06T12:28:22.101Z,11.10
2018-12-06T12:31:25.354Z,11.10
2018-12-06T12:34:28.622Z,11.00
2018-12-06T12:37:31.896Z,11.10
2018-12-06T12:40:35.177Z,11.00
2018-12-06T12:43:38.533Z,11.40
2018-12-06T12:46:41.745Z,10.80
2018-12-06T12:49:45.005Z,11.00
2018-12-06T12:52:48.233Z,11.40
2018-12-06T12:55:51.517Z,11.20
2018-12-06T12:58:54.730Z,10.90
2018-12-06T13:01:58.005Z,11.00
2018-12-06T13:05:01.228Z,11.10
2018-12-06T13:08:04.652Z,11.50
2018-12-06T13:11:07.942Z,11.20
2018-12-06T13:14:11.357Z,11.40
2018-12-06T13:17:14.601Z,11.40
2018-12-06T13:20:17.862Z,11.50
2018-12-06T13:23:21.077Z,11.50
2018-12-06T13:26:24.533Z,11.30
2018-12-06T13:29:27.901Z,11.60
2018-12-06T13:32:31.253Z,11.60
2018-12-06T13:35:34.481Z,11.20
2018-12-06T13:38:37.716Z,11.70
2018-12-06T13:41:41.821Z,11.60
2018-12-06T13:44:45.077Z,11.20
2018-12-06T13:47:48.308Z,11.70
2018-12-06T13:50:51.694Z,11.60
2018-12-06T13:53:54.947Z,11.70
2018-12-06T13:56:58.221Z,11.20
2018-12-06T14:00:01.466Z,11.50
2018-12-06T14:03:04.729Z,11.20
2018-12-06T14:06:07.996Z,11.10
2018-12-06T14:09:11.233Z,11.70
2018-12-06T14:12:14.485Z,11.60
2018-12-06T14:15:17.733Z,11.60
2018-12-06T14:18:20.949Z,11.60
2018-12-06T14:21:24.181Z,11.50
2018-12-06T14:24:27.412Z,11.40
2018-12-06T14:27:30.649Z,11.60
2018-12-06T14:30:33.890Z,11.50
2018-12-06T14:33:37.411Z,11.40
2018-12-06T14:36:40.693Z,11.20
2018-12-06T14:39:43.985Z,11.60
2018-12-06T14:42:47.325Z,11.20
2018-12-06T14:45:51.128Z,11.70
2018-12-06T14:48:54.404Z,11.60
2018-12-06T14:51:57.657Z,11.40
2018-12-06T14:55:00.890Z,11.50
2018-12-06T14:58:04.225Z,11.60
2018-12-06T15:01:07.565Z,11.40
2018-12-06T15:04:11.025Z,11.10
2018-12-06T15:07:14.245Z,11.60
2018-12-06T15:10:17.443Z,11.60
2018-12-06T15:13:20.797Z,11.60
2018-12-06T15:16:24.036Z,11.50
2018-12-06T15:19:27.240Z,11.60
2018-12-06T15:22:30.465Z,11.60
2018-12-06T15:25:33.649Z,11.60
2018-12-06T15:28:36.860Z,11.90
2018-12-06T15:31:40.072Z,11.40
2018-12-06T15:34:43.269Z,11.60
2018-12-06T15:37:46.565Z,11.60
2018-12-06T15:40:49.796Z,11.70
2018-12-06T15:43:53.037Z,11.40
2018-12-06T15:46:56.289Z,11.50
2018-12-06T15:49:59.497Z,11.20
2018-12-06T15:53:02.725Z,11.90
2018-12-06T15:56:05.937Z,11.70
2018-12-06T15:59:09.185Z,11.50
2018-12-06T16:02:12.417Z,11.40
2018-12-06T16:05:15.681Z,11.80
2018-12-06T16:08:20.155Z,11.30
2018-12-06T16:11:23.361Z,11.40
2018-12-06T16:14:26.605Z,11.80
2018-12-06T16:17:29.829Z,11.90
2018-12-06T16:20:33.120Z,11.70
2018-12-06T16:23:36.398Z,11.40
2018-12-06T16:26:39.625Z,11.20
2018-12-06T16:29:51.199Z,11.20
2018-12-06T16:32:48.060Z,11.40
2018-12-06T16:35:51.316Z,11.20
2018-12-06T16:38:54.544Z,11.40
2018-12-06T16:41:57.809Z,11.20
2018-12-06T16:45:01.081Z,11.30
2018-12-06T16:48:04.353Z,11.40
2018-12-06T16:51:07.564Z,11.40
2018-12-06T16:54:10.953Z,11.20
2018-12-06T16:57:14.148Z,11.40
2018-12-06T17:00:17.521Z,11.40
2018-12-06T17:03:20.737Z,11.70
2018-12-06T17:06:23.969Z,11.50
2018-12-06T17:09:27.213Z,11.60
2018-12-06T17:12:30.409Z,11.10
2018-12-06T17:15:33.667Z,11.70
2018-12-06T17:18:36.892Z,11.10
2018-12-06T17:21:40.101Z,11.60
2018-12-06T17:24:43.337Z,11.70
2018-12-06T17:27:46.588Z,11.20
2018-12-06T17:30:49.937Z,11.70
2018-12-06T17:33:53.182Z,11.80
2018-12-06T17:36:56.397Z,11.40
2018-12-06T17:39:59.754Z,11.70
2018-12-06T17:43:03.105Z,11.80
2018-12-06T17:46:06.377Z,11.70
2018-12-06T17:49:09.713Z,11.60
2018-12-06T17:52:13.301Z,11.70
2018-12-06T17:55:16.661Z,11.80
2018-12-06T17:58:19.925Z,11.30
2018-12-06T18:01:23.161Z,11.50
2018-12-06T18:04:26.405Z,11.30
2018-12-06T18:07:29.633Z,11.90
2018-12-06T18:10:33.418Z,11.80
2018-12-06T18:13:36.656Z,11.50
2018-12-06T18:16:39.932Z,12.00
2018-12-06T18:19:43.249Z,11.40
2018-12-06T18:22:46.501Z,11.40
2018-12-06T18:25:49.724Z,11.40
2018-12-06T18:28:52.957Z,11.70
2018-12-06T18:31:56.237Z,11.50
2018-12-06T18:34:59.582Z,11.50
2018-12-06T18:38:02.862Z,11.70
2018-12-06T18:41:06.009Z,11.80
2018-12-06T18:44:09.367Z,12.00
2018-12-06T18:47:13.038Z,11.80
2018-12-06T18:50:16.422Z,11.80
2018-12-06T18:53:19.713Z,11.70
2018-12-06T18:56:23.240Z,11.90
2018-12-06T18:59:26.558Z,11.80
2018-12-06T19:02:29.891Z,11.90
2018-12-06T19:05:33.241Z,11.90
2018-12-06T19:08:36.546Z,11.50
2018-12-06T19:11:39.829Z,11.90
2018-12-06T19:14:43.133Z,11.50
2018-12-06T19:17:47.505Z,12.00
2018-12-06T19:20:50.882Z,11.90
2018-12-06T19:23:54.165Z,11.60
2018-12-06T19:26:57.443Z,11.50
2018-12-06T19:30:00.773Z,11.90
2018-12-06T19:33:04.049Z,11.60
2018-12-06T19:36:07.297Z,11.60
2018-12-06T19:39:10.758Z,11.60
2018-12-06T19:42:14.122Z,12.00
2018-12-06T19:45:17.533Z,11.80
2018-12-06T19:48:20.950Z,11.50
2018-12-06T19:51:24.247Z,11.60
2018-12-06T19:54:27.494Z,11.80
2018-12-06T19:57:30.839Z,11.40
2018-12-06T20:00:34.114Z,11.30
2018-12-06T20:03:37.368Z,11.70
2018-12-06T20:06:40.656Z,11.40
2018-12-06T20:09:43.984Z,11.30
2018-12-06T20:15:48.782Z,11.80
2018-12-06T20:18:52.062Z,11.70
2018-12-06T20:21:55.370Z,11.80
2018-12-06T20:24:58.651Z,11.90
2018-12-06T20:28:02.026Z,11.80
2018-12-06T20:31:05.317Z,11.80
2018-12-06T20:34:08.606Z,11.50
2018-12-06T20:37:11.873Z,11.90
2018-12-06T20:40:15.137Z,11.70
2018-12-06T20:43:18.386Z,12.10
2018-12-06T20:46:21.676Z,12.10
2018-12-06T20:49:24.999Z,11.90
2018-12-06T20:52:28.289Z,11.90
2018-12-06T20:55:31.544Z,11.90
2018-12-06T20:58:34.830Z,11.90
2018-12-06T21:01:38.094Z,12.00
2018-12-06T21:04:41.324Z,11.70
2018-12-06T21:07:44.577Z,11.90
2018-12-06T21:10:47.853Z,11.80
2018-12-06T21:13:51.162Z,11.70
2018-12-06T21:16:54.638Z,12.10
2018-12-06T21:19:57.906Z,12.10
2018-12-06T21:23:01.233Z,12.00
2018-12-06T21:26:04.514Z,12.10
2018-12-06T21:29:07.800Z,11.80
2018-12-06T21:32:11.182Z,11.90
2018-12-06T21:35:14.494Z,12.20
2018-12-06T21:38:17.951Z,12.20
2018-12-06T21:41:21.202Z,12.20
2018-12-06T21:44:24.450Z,11.90
2018-12-06T21:47:27.749Z,12.20
2018-12-06T21:50:31.089Z,12.10
2018-12-06T21:53:34.503Z,12.20
2018-12-06T21:56:37.886Z,12.10
2018-12-06T21:59:41.166Z,12.00
2018-12-06T22:02:44.409Z,11.90
2018-12-06T22:05:47.646Z,11.70
2018-12-06T22:08:50.941Z,12.40
2018-12-06T22:11:54.306Z,12.20
2018-12-06T22:14:57.564Z,12.30
2018-12-06T22:18:00.818Z,11.90
2018-12-06T22:21:04.116Z,12.00
2018-12-06T22:24:07.394Z,12.20
2018-12-06T22:27:10.663Z,12.30
2018-12-06T22:30:13.961Z,12.40
2018-12-06T22:33:17.245Z,12.10
2018-12-06T22:36:20.515Z,12.30
2018-12-06T22:39:23.820Z,12.30
2018-12-06T22:42:27.081Z,11.80
2018-12-06T22:46:01.625Z,12.20
2018-12-06T22:49:04.884Z,11.90
2018-12-06T22:52:08.168Z,11.90
2018-12-06T22:55:11.550Z,11.80
2018-12-06T22:58:14.789Z,12.30
2018-12-06T23:04:42.097Z,12.00
2018-12-06T23:07:45.426Z,11.90
2018-12-06T23:10:48.933Z,12.30
2018-12-06T23:13:52.413Z,12.10
2018-12-06T23:16:55.842Z,12.20
2018-12-06T23:19:59.085Z,11.70
2018-12-06T23:23:02.414Z,11.70
2018-12-06T23:26:05.677Z,12.10
2018-12-06T23:29:08.942Z,12.10
2018-12-06T23:32:12.157Z,11.90
2018-12-06T23:35:15.404Z,11.50
2018-12-06T23:38:18.665Z,11.70
2018-12-06T23:41:21.985Z,11.90
2018-12-06T23:44:25.216Z,11.90
2018-12-06T23:47:28.502Z,12.00
2018-12-06T23:50:31.733Z,12.00
2018-12-06T23:53:35.010Z,11.90
2018-12-06T23:56:38.294Z,11.60
2018-12-06T23:59:41.642Z,11.80
